Time;durP1;ratioP1;P1;durP2;ratioP2;P2;SDS_P1;SDS_P2;PMS_P1;PMS_P2;Temp;Humidity;BMP_temperature;BMP_pressure;BME280_temperature;BME280_humidity;BME280_pressure;Samples;Min_cycle;Max_cycle;Signal;HPM_P1;HPM_P2
2021/05/21 00:01:34;;;;;;;;;;;;;;;10.71;94.26;98949.55;1705597;80;20296;-86
2021/05/21 00:07:10;;;;;;;;;;;;;;;10.71;94.69;98945.66;1738147;80;20288;-94
2021/05/21 00:09:36;;;;;;;;;;;;;;;10.73;93.79;98948.60;1715470;84;20258;-94
2021/05/21 00:12:03;;;;;;;;;;;;;;;10.71;93.57;98950.39;1715356;84;20202;-93
2021/05/21 00:14:29;;;;;;;;;;;;;;;10.70;95.05;98953.03;1715407;83;20206;-93
2021/05/21 00:16:56;;;;;;;;;;;;;;;10.68;94.83;98958.72;1715665;83;20243;-95
2021/05/21 00:19:22;;;;;;;;;;;;;;;10.67;95.71;98950.53;1708702;84;20723;-95
2021/05/21 00:21:48;;;;;;;;;;;;;;;10.65;96.19;98958.82;1706824;84;20204;-94
2021/05/21 00:24:15;;;;;;;;;;;;;;;10.69;95.29;98954.78;1714475;84;20176;-93
2021/05/21 00:26:41;;;;;;;;;;;;;;;10.69;95.92;98962.59;1716052;84;20204;-95
2021/05/21 00:29:08;;;;;;;;;;;;;;;10.73;95.71;98956.86;1712024;83;20210;-94
2021/05/21 00:31:34;;;;;;;;;;;;;;;10.71;96.04;98955.59;1705606;84;20169;-94
2021/05/21 00:34:01;;;;;;;;;;;;;;;10.75;95.75;98958.97;1723181;82;20175;-94
2021/05/21 00:36:27;;;;;;;;;;;;;;;10.76;95.67;98954.16;1725288;83;20164;-94
2021/05/21 00:38:53;;;;;;;;;;;;;;;10.75;95.95;98951.17;1725987;83;20220;-93
2021/05/21 00:41:23;;;;;;;;;;;;;;;10.75;95.68;98956.37;1725925;83;20148;-94
2021/05/21 00:43:56;;;;;;;;;;;;;;;10.77;95.52;98955.88;1695964;80;20159;-93
2021/05/21 00:46:32;;;;;;;;;;;;;;;10.78;95.66;98952.36;1739266;82;20246;-94
2021/05/21 00:48:58;;;;;;;;;;;;;;;10.75;95.88;98961.56;1738169;83;20182;-93
2021/05/21 00:51:25;;;;;;;;;;;;;;;10.78;95.17;98964.06;1721905;83;20197;-94
2021/05/21 00:53:51;;;;;;;;;;;;;;;10.82;94.85;98963.08;1754131;82;20220;-93
2021/05/21 00:56:17;;;;;;;;;;;;;;;10.84;94.19;98964.34;1754249;82;20210;-93
2021/05/21 00:58:43;;;;;;;;;;;;;;;10.81;94.93;98961.39;1754061;81;20155;-93
2021/05/21 01:01:10;;;;;;;;;;;;;;;10.80;94.89;98962.27;1754243;81;20336;-95
2021/05/21 01:03:41;;;;;;;;;;;;;;;10.80;94.83;98971.37;1754173;81;20191;-93
2021/05/21 01:08:47;;;;;;;;;;;;;;;10.81;94.82;98966.59;1633397;88;20585;-93
2021/05/21 01:11:13;;;;;;;;;;;;;;;10.80;94.44;98968.78;1637634;86;20174;-95
2021/05/21 01:13:39;;;;;;;;;;;;;;;10.79;94.92;98968.39;1658916;86;20180;-94
2021/05/21 01:16:06;;;;;;;;;;;;;;;10.80;94.82;98986.98;1657064;87;20173;-93
2021/05/21 01:18:32;;;;;;;;;;;;;;;10.79;94.93;98974.89;1634817;87;20214;-94
2021/05/21 01:20:59;;;;;;;;;;;;;;;10.78;95.03;98980.13;1634032;88;20221;-87
2021/05/21 01:23:27;;;;;;;;;;;;;;;10.80;94.76;98984.38;1634133;88;20214;-87
2021/05/21 01:25:53;;;;;;;;;;;;;;;10.80;94.70;98983.08;1677432;80;20182;-96
2021/05/21 01:28:20;;;;;;;;;;;;;;;10.76;95.15;98977.56;1692298;85;20191;-94
2021/05/21 01:30:47;;;;;;;;;;;;;;;10.78;94.84;98983.56;1711784;81;20176;-95
2021/05/21 01:33:14;;;;;;;;;;;;;;;10.78;94.93;98982.27;1726983;83;20207;-94
2021/05/21 01:35:42;;;;;;;;;;;;;;;10.75;95.37;98984.52;1722830;83;20168;-95
2021/05/21 01:38:11;;;;;;;;;;;;;;;10.75;95.65;98988.41;1753566;80;20185;-94
2021/05/21 01:40:38;;;;;;;;;;;;;;;10.74;95.78;98984.12;1711092;79;20262;-94
2021/05/21 01:43:04;;;;;;;;;;;;;;;10.77;95.83;98987.08;1710330;84;20215;-94
2021/05/21 01:45:31;;;;;;;;;;;;;;;10.76;95.85;98990.56;1709906;84;20218;-92
2021/05/21 01:47:58;;;;;;;;;;;;;;;10.76;96.32;98993.16;1710080;84;20186;-94
2021/05/21 01:50:24;;;;;;;;;;;;;;;10.70;96.50;98994.20;1738004;79;20235;-94
2021/05/21 01:52:51;;;;;;;;;;;;;;;10.78;94.54;99004.38;1741829;82;20190;-94
2021/05/21 01:55:18;;;;;;;;;;;;;;;10.80;94.56;99005.18;1730804;81;20226;-94
2021/05/21 01:57:44;;;;;;;;;;;;;;;10.77;96.03;99003.98;1710302;81;20207;-94
2021/05/21 02:00:12;;;;;;;;;;;;;;;10.80;95.75;98995.23;1710015;84;20205;-94
2021/05/21 02:02:43;;;;;;;;;;;;;;;10.78;95.88;99002.23;1722148;79;20231;-94
2021/05/21 02:05:10;;;;;;;;;;;;;;;10.78;95.90;99008.73;1766090;79;20228;-95
2021/05/21 02:07:37;;;;;;;;;;;;;;;10.79;95.70;99002.19;1774105;81;20164;-94
2021/05/21 02:10:09;;;;;;;;;;;;;;;10.83;95.23;99005.56;1773756;81;20168;-94
2021/05/21 02:12:36;;;;;;;;;;;;;;;10.84;95.07;99005.95;1732655;81;20192;-93
2021/05/21 02:15:07;;;;;;;;;;;;;;;10.80;95.34;99003.03;1753203;80;20134;-94
2021/05/21 02:17:33;;;;;;;;;;;;;;;10.83;94.65;99008.17;1711727;79;20247;-93
2021/05/21 02:20:01;;;;;;;;;;;;;;;10.82;94.99;99009.89;1711232;82;20173;-93
2021/05/21 02:22:28;;;;;;;;;;;;;;;10.84;94.16;99010.73;1685661;80;20185;-92
2021/05/21 02:27:44;;;;;;;;;;;;;;;10.81;94.50;99013.41;1560545;92;20256;-95
2021/05/21 02:30:11;;;;;;;;;;;;;;;10.79;94.79;99020.39;1561041;90;20171;-96
2021/05/21 02:32:39;;;;;;;;;;;;;;;10.77;95.48;99022.19;1697338;80;20157;-94
2021/05/21 02:35:08;;;;;;;;;;;;;;;10.79;94.62;99019.55;1725585;79;20705;-94
2021/05/21 02:37:34;;;;;;;;;;;;;;;10.82;94.99;99030.70;1726639;80;20698;-94
2021/05/21 02:40:00;;;;;;;;;;;;;;;10.77;95.20;99028.69;1760267;81;20165;-94
2021/05/21 02:42:26;;;;;;;;;;;;;;;10.73;95.86;99027.06;1759462;82;20181;-96
2021/05/21 02:44:53;;;;;;;;;;;;;;;10.74;95.91;99030.05;1759471;82;20202;-93
2021/05/21 02:47:19;;;;;;;;;;;;;;;10.75;95.18;99030.02;1759579;82;20130;-94
2021/05/21 02:49:45;;;;;;;;;;;;;;;10.69;96.15;99033.24;1759491;82;20169;-95
2021/05/21 02:52:11;;;;;;;;;;;;;;;10.77;95.01;99033.05;1759528;82;20198;-94
2021/05/21 02:54:37;;;;;;;;;;;;;;;10.70;96.19;99034.52;1759155;81;20178;-93
2021/05/21 02:57:04;;;;;;;;;;;;;;;10.65;96.28;99034.22;1759293;82;20181;-94
2021/05/21 02:59:31;;;;;;;;;;;;;;;10.65;96.32;99034.22;1759127;82;20150;-94
2021/05/21 03:01:57;;;;;;;;;;;;;;;10.65;95.92;99037.66;1775554;80;20194;-94
2021/05/21 03:04:23;;;;;;;;;;;;;;;10.64;96.21;99044.20;1791757;80;20226;-94
2021/05/21 03:06:49;;;;;;;;;;;;;;;10.65;95.92;99051.97;1791972;80;20175;-94
2021/05/21 03:09:16;;;;;;;;;;;;;;;10.59;96.19;99056.02;1791824;80;20143;-94
2021/05/21 03:11:43;;;;;;;;;;;;;;;10.65;95.87;99062.81;1774664;80;20260;-94
2021/05/21 03:14:09;;;;;;;;;;;;;;;10.61;96.38;99060.73;1707669;80;20227;-93
2021/05/21 03:16:35;;;;;;;;;;;;;;;10.60;96.26;99064.22;1764288;81;20161;-93
2021/05/21 03:19:01;;;;;;;;;;;;;;;10.63;96.27;99067.20;1746826;82;20185;-95
2021/05/21 03:21:28;;;;;;;;;;;;;;;10.59;97.09;99071.63;1760396;81;20208;-92
2021/05/21 03:23:54;;;;;;;;;;;;;;;10.67;95.73;99068.38;1760255;82;20501;-94
2021/05/21 03:26:20;;;;;;;;;;;;;;;10.67;95.76;99074.88;1760297;80;20181;-94
2021/05/21 03:28:47;;;;;;;;;;;;;;;10.67;96.17;99074.03;1730193;82;20167;-94
2021/05/21 03:31:13;;;;;;;;;;;;;;;10.68;96.08;99075.30;1730394;83;20498;-93
2021/05/21 03:33:39;;;;;;;;;;;;;;;10.72;95.51;99073.45;1730100;83;20183;-93
2021/05/21 03:36:06;;;;;;;;;;;;;;;10.70;95.88;99077.84;1747137;81;20171;-93
2021/05/21 03:38:32;;;;;;;;;;;;;;;10.69;96.47;99083.94;1778508;81;20172;-94
2021/05/21 03:40:58;;;;;;;;;;;;;;;10.74;96.19;99084.23;1778655;81;20206;-93
2021/05/21 03:43:25;;;;;;;;;;;;;;;10.78;96.28;99078.94;1778626;81;20167;-95
2021/05/21 03:45:51;;;;;;;;;;;;;;;10.83;95.16;99081.83;1778467;81;20247;-93
2021/05/21 03:48:17;;;;;;;;;;;;;;;10.83;95.73;99084.89;1780136;80;20113;-93
2021/05/21 03:50:44;;;;;;;;;;;;;;;10.89;94.69;99084.72;1743923;79;20152;-92
2021/05/21 03:53:20;;;;;;;;;;;;;;;10.86;95.09;99086.97;1714483;80;20168;31
2021/05/21 03:55:46;;;;;;;;;;;;;;;10.88;94.70;99087.78;1706323;81;20125;-88
2021/05/21 03:58:12;;;;;;;;;;;;;;;10.86;94.70;99089.56;1713591;81;20168;-95
2021/05/21 04:00:39;;;;;;;;;;;;;;;10.90;94.56;99093.80;1720434;83;20216;-94
2021/05/21 04:03:07;;;;;;;;;;;;;;;10.92;94.24;99101.11;1718616;83;20184;-94
2021/05/21 04:05:34;;;;;;;;;;;;;;;10.98;93.95;99101.82;1695387;81;20220;-94
2021/05/21 04:08:00;;;;;;;;;;;;;;;10.97;93.79;99100.13;1709516;84;20219;-92
2021/05/21 04:10:27;;;;;;;;;;;;;;;11.01;93.45;99098.70;1709256;84;20185;-93
2021/05/21 04:12:55;;;;;;;;;;;;;;;11.04;93.13;99101.66;1766928;81;20175;-93
2021/05/21 04:15:21;;;;;;;;;;;;;;;11.01;93.43;99104.36;1775620;80;20203;-93
2021/05/21 04:17:47;;;;;;;;;;;;;;;11.10;93.16;99108.87;1782561;80;20153;-93
2021/05/21 04:20:14;;;;;;;;;;;;;;;11.08;93.04;99114.98;1787265;80;20185;-93
2021/05/21 04:22:40;;;;;;;;;;;;;;;11.13;93.18;99115.27;1775360;80;20187;-94
2021/05/21 04:25:07;;;;;;;;;;;;;;;11.15;93.14;99122.59;1775850;81;20243;-94
2021/05/21 04:27:33;;;;;;;;;;;;;;;11.20;92.92;99113.80;1771951;80;20550;-93
2021/05/21 04:29:59;;;;;;;;;;;;;;;11.28;92.74;99113.14;1745015;82;20182;-94
2021/05/21 04:32:25;;;;;;;;;;;;;;;11.32;92.79;99113.45;1744882;82;20193;-93
2021/05/21 04:34:52;;;;;;;;;;;;;;;11.31;92.19;99119.12;1749596;79;20142;-94
2021/05/21 04:37:18;;;;;;;;;;;;;;;11.41;92.46;99119.72;1762385;81;20173;-94
2021/05/21 04:39:44;;;;;;;;;;;;;;;11.44;92.42;99118.34;1755848;79;20165;-94
2021/05/21 04:42:10;;;;;;;;;;;;;;;11.52;92.13;99115.53;1807237;79;20192;-93
2021/05/21 04:44:36;;;;;;;;;;;;;;;11.50;92.20;99130.34;1807456;79;20212;-94
2021/05/21 04:49:45;;;;;;;;;;;;;;;11.60;91.75;99133.08;1708712;84;20217;-93
2021/05/21 04:52:11;;;;;;;;;;;;;;;11.65;91.80;99135.09;1707880;84;20189;-93
2021/05/21 04:54:44;;;;;;;;;;;;;;;11.75;91.03;99136.52;1731742;83;20222;-93
2021/05/21 04:57:18;;;;;;;;;;;;;;;11.72;91.73;99141.84;1627178;82;20191;-94
2021/05/21 04:59:44;;;;;;;;;;;;;;;11.80;90.79;99145.95;1621446;88;20192;-94
2021/05/21 05:02:10;;;;;;;;;;;;;;;11.78;91.50;99143.84;1641421;88;20189;-94
2021/05/21 05:04:37;;;;;;;;;;;;;;;11.79;91.47;99141.66;1642781;87;20160;-95
2021/05/21 05:07:03;;;;;;;;;;;;;;;11.78;91.57;99135.60;1642984;88;20193;-94
2021/05/21 05:09:29;;;;;;;;;;;;;;;11.87;91.38;99136.61;1642384;87;20161;-94
2021/05/21 05:11:58;;;;;;;;;;;;;;;11.95;91.38;99139.03;1642623;87;20209;-95
2021/05/21 05:14:24;;;;;;;;;;;;;;;11.86;90.88;99142.73;1696235;84;20532;-94
2021/05/21 05:16:51;;;;;;;;;;;;;;;11.96;90.88;99151.59;1700458;85;20210;-94
2021/05/21 05:19:17;;;;;;;;;;;;;;;12.08;90.45;99149.95;1700453;85;20193;-94
2021/05/21 05:21:45;;;;;;;;;;;;;;;12.11;90.71;99151.14;1672210;85;20168;-95
2021/05/21 05:24:15;;;;;;;;;;;;;;;12.17;90.43;99155.31;1720008;82;20184;-95
2021/05/21 05:27:17;;;;;;;;;;;;;;;12.30;90.04;99153.59;1736179;80;20169;-93
2021/05/21 05:29:45;;;;;;;;;;;;;;;12.29;89.70;99151.02;1714017;80;20121;-90
2021/05/21 05:35:09;;;;;;;;;;;;;;;12.34;89.40;99162.17;1744213;80;20187;-96
2021/05/21 05:37:52;;;;;;;;;;;;;;;12.31;89.21;99166.17;1715357;80;20280;31
2021/05/21 05:40:18;;;;;;;;;;;;;;;12.30;88.33;99172.30;1662754;85;20246;-94
2021/05/21 05:42:44;;;;;;;;;;;;;;;12.26;88.67;99178.51;1659563;87;20246;-94
2021/05/21 05:48:21;;;;;;;;;;;;;;;12.25;88.75;99168.51;1701196;80;20206;-95
2021/05/21 05:53:45;;;;;;;;;;;;;;;12.24;88.66;99188.13;1710555;80;20268;-95
2021/05/21 05:56:12;;;;;;;;;;;;;;;12.21;88.87;99186.45;1719033;80;20160;-95
2021/05/21 05:58:40;;;;;;;;;;;;;;;12.30;88.69;99184.03;1725433;82;20160;-95
2021/05/21 06:01:08;;;;;;;;;;;;;;;12.26;88.41;99189.78;1725193;83;20144;-93
2021/05/21 06:03:40;;;;;;;;;;;;;;;12.25;88.47;99190.66;1637440;82;20206;-95
2021/05/21 06:06:06;;;;;;;;;;;;;;;12.21;88.63;99181.23;1715985;80;20163;-94
2021/05/21 06:11:25;;;;;;;;;;;;;;;12.25;88.89;99191.97;1646549;84;20198;-94
2021/05/21 06:13:52;;;;;;;;;;;;;;;12.28;89.02;99194.95;1637989;86;20191;-94
2021/05/21 06:16:19;;;;;;;;;;;;;;;12.33;88.33;99195.64;1624606;87;20211;-93
2021/05/21 06:18:47;;;;;;;;;;;;;;;12.37;88.37;99199.87;1621936;87;20186;-94
2021/05/21 06:21:36;;;;;;;;;;;;;;;12.30;87.83;99187.94;1728395;82;20720;-94
2021/05/21 06:24:03;;;;;;;;;;;;;;;12.45;87.79;99191.35;1748733;82;20198;-94
2021/05/21 06:28:58;;;;;;;;;;;;;;;12.56;86.76;99195.41;1676102;81;20281;-94
2021/05/21 06:31:24;;;;;;;;;;;;;;;12.65;87.15;99181.62;1676110;85;20238;-93
2021/05/21 06:33:50;;;;;;;;;;;;;;;12.69;85.80;99189.75;1686859;85;20178;-94
2021/05/21 06:36:16;;;;;;;;;;;;;;;12.69;86.15;99184.96;1687043;85;20482;-95
2021/05/21 06:38:43;;;;;;;;;;;;;;;12.79;85.36;99182.91;1682678;85;20219;-95
2021/05/21 06:44:03;;;;;;;;;;;;;;;12.85;85.40;99184.89;1688748;82;20181;-93
2021/05/21 06:46:29;;;;;;;;;;;;;;;12.84;85.70;99188.38;1688586;83;20173;-93
2021/05/21 06:48:56;;;;;;;;;;;;;;;12.71;85.65;99182.73;1656556;85;20248;-92
2021/05/21 06:51:23;;;;;;;;;;;;;;;12.61;85.83;99190.42;1663441;86;20254;-93
2021/05/21 06:56:59;;;;;;;;;;;;;;;12.63;86.26;99190.38;1714180;81;20492;-94
2021/05/21 06:59:25;;;;;;;;;;;;;;;12.62;86.75;99194.75;1735715;83;20145;-94
2021/05/21 07:04:48;;;;;;;;;;;;;;;12.82;86.89;99195.41;1713711;80;20233;-92
2021/05/21 07:07:14;;;;;;;;;;;;;;;12.94;85.90;99193.70;1737952;82;20294;-95
2021/05/21 07:09:41;;;;;;;;;;;;;;;13.12;86.00;99197.91;1720656;80;20197;-93
2021/05/21 07:15:05;;;;;;;;;;;;;;;13.31;83.82;99194.26;1709247;78;20166;-93
2021/05/21 07:17:51;;;;;;;;;;;;;;;13.45;82.43;99194.63;1719017;83;20164;-95
2021/05/21 07:26:09;;;;;;;;;;;;;;;13.80;79.52;99196.41;1746919;79;20149;-92
2021/05/21 07:31:55;;;;;;;;;;;;;;;14.01;79.25;99188.23;1763309;80;20228;-93
2021/05/21 07:34:22;;;;;;;;;;;;;;;14.11;77.81;99190.89;1779760;80;20215;-92
2021/05/21 07:36:48;;;;;;;;;;;;;;;14.21;77.35;99194.48;1769497;80;20334;-92
2021/05/21 07:39:15;;;;;;;;;;;;;;;14.45;77.28;99206.59;1760072;80;20204;-93
2021/05/21 07:41:43;;;;;;;;;;;;;;;14.65;76.43;99206.30;1743449;79;20111;-92
2021/05/21 07:44:11;;;;;;;;;;;;;;;14.85;74.96;99209.42;1764267;80;20741;-93
2021/05/21 07:46:37;;;;;;;;;;;;;;;14.96;72.70;99203.73;1690723;80;20142;-91
2021/05/21 07:49:04;;;;;;;;;;;;;;;15.27;72.16;99212.00;1665323;86;20267;-88
2021/05/21 07:51:40;;;;;;;;;;;;;;;15.51;71.34;99207.47;1654239;86;20187;-87
2021/05/21 07:54:16;;;;;;;;;;;;;;;15.71;71.74;99201.83;1657831;85;20180;-86
2021/05/21 07:56:50;;;;;;;;;;;;;;;15.92;69.23;99203.98;1629815;85;20253;-90
2021/05/21 08:02:09;;;;;;;;;;;;;;;16.15;67.85;99216.03;1707444;80;21528;-87
2021/05/21 08:07:36;;;;;;;;;;;;;;;16.32;64.93;99219.20;1723693;80;20128;-85
2021/05/21 08:10:08;;;;;;;;;;;;;;;16.47;66.70;99216.30;1705237;81;20208;31
2021/05/21 08:12:37;;;;;;;;;;;;;;;16.47;67.13;99209.74;1677182;85;20207;-86
2021/05/21 08:20:54;;;;;;;;;;;;;;;16.43;63.80;99198.56;1727871;80;20137;-89
2021/05/21 08:29:19;;;;;;;;;;;;;;;16.85;62.45;99205.32;1716965;78;20168;-89
2021/05/21 08:37:24;;;;;;;;;;;;;;;17.08;63.49;99196.75;1753294;77;20176;-88
2021/05/21 08:52:03;;;;;;;;;;;;;;;16.90;64.31;99216.44;1744502;79;20174;-88
2021/05/21 08:54:34;;;;;;;;;;;;;;;16.82;65.30;99193.64;1791390;79;20153;-88
2021/05/21 08:56:59;;;;;;;;;;;;;;;17.00;65.52;99202.86;1768912;78;20104;-87
2021/05/21 08:59:25;;;;;;;;;;;;;;;17.12;65.39;99206.66;1786281;80;20162;-89
2021/05/21 09:01:53;;;;;;;;;;;;;;;17.18;63.69;99211.59;1791148;80;20161;-87
2021/05/21 09:04:20;;;;;;;;;;;;;;;17.18;62.33;99198.46;1792273;80;20130;-88
2021/05/21 09:06:48;;;;;;;;;;;;;;;17.16;62.83;99203.78;1800882;80;20172;-87
2021/05/21 09:09:20;;;;;;;;;;;;;;;17.19;63.66;99197.52;1787334;80;20193;-88
2021/05/21 09:11:48;;;;;;;;;;;;;;;17.12;63.69;99207.49;1782196;80;20154;-87
2021/05/21 09:14:20;;;;;;;;;;;;;;;17.27;64.10;99207.20;1786987;80;20161;-88
2021/05/21 09:16:48;;;;;;;;;;;;;;;17.34;61.19;99208.56;1790902;80;20149;-88
2021/05/21 09:19:23;;;;;;;;;;;;;;;17.48;61.94;99202.13;1792957;80;20113;-89
2021/05/21 09:22:09;;;;;;;;;;;;;;;17.58;59.91;99202.98;1837737;78;20238;-87
2021/05/21 09:24:39;;;;;;;;;;;;;;;17.72;61.22;99209.67;1780439;80;20181;-86
2021/05/21 09:27:08;;;;;;;;;;;;;;;17.77;61.25;99207.66;1776505;80;20138;-85
2021/05/21 09:29:46;;;;;;;;;;;;;;;17.82;61.11;99208.72;1788524;80;20222;-82
2021/05/21 09:32:24;;;;;;;;;;;;;;;17.82;56.79;99200.83;1807755;79;20229;-87
2021/05/21 09:35:01;;;;;;;;;;;;;;;17.97;56.80;99198.73;1792532;80;20185;-87
2021/05/21 09:37:28;;;;;;;;;;;;;;;18.06;58.36;99203.52;1792609;80;20151;-88
2021/05/21 09:40:04;;;;;;;;;;;;;;;18.20;59.04;99201.89;1820172;78;20094;-88
2021/05/21 09:42:46;;;;;;;;;;;;;;;18.32;59.19;99203.00;1792582;80;20419;-87
2021/05/21 09:45:19;;;;;;;;;;;;;;;18.41;55.33;99206.45;1787089;79;20197;-83
2021/05/21 09:47:49;;;;;;;;;;;;;;;18.40;52.68;99202.11;1826508;76;20189;-86
2021/05/21 09:50:16;;;;;;;;;;;;;;;18.41;55.62;99202.03;1802361;79;20310;-88
2021/05/21 09:52:49;;;;;;;;;;;;;;;18.47;55.21;99200.84;1769748;80;20225;-89
2021/05/21 10:07:44;;;;;;;;;;;;;;;18.62;54.09;99202.63;1735312;79;20219;-87
2021/05/21 10:10:28;;;;;;;;;;;;;;;18.49;50.54;99207.71;1741679;79;20140;-85
2021/05/21 10:18:51;;;;;;;;;;;;;;;17.97;53.62;99211.89;1717166;78;20192;-88
2021/05/21 10:21:19;;;;;;;;;;;;;;;17.82;53.69;99216.61;1705275;83;20212;-90
2021/05/21 10:24:25;;;;;;;;;;;;;;;;;;;;;
2021/05/21 10:27:08;;;;;;;;;;;;;;;17.68;54.65;99210.77;1677882;82;20178;-88
2021/05/21 10:38:27;;;;;;;;;;;;;;;16.85;63.94;99243.84;1696326;79;20189;-85
2021/05/21 10:41:16;;;;;;;;;;;;;;;16.44;67.00;99251.42;1715626;80;20185;-88
2021/05/21 10:43:53;;;;;;;;;;;;;;;16.12;69.90;99250.75;1732690;81;20174;-85
2021/05/21 10:46:28;;;;;;;;;;;;;;;15.87;70.85;99260.55;1740340;82;20118;-85
2021/05/21 10:49:04;;;;;;;;;;;;;;;15.62;72.31;99255.51;1736135;82;20208;-84
2021/05/21 10:51:54;;;;;;;;;;;;;;;15.49;72.19;99256.47;1738046;82;20181;-84
2021/05/21 10:54:26;;;;;;;;;;;;;;;15.27;71.81;99251.30;1732216;82;20226;-85
2021/05/21 10:56:55;;;;;;;;;;;;;;;15.18;72.38;99238.60;1742376;82;20325;-86
2021/05/21 10:59:25;;;;;;;;;;;;;;;15.09;70.82;99237.20;1741741;82;20213;-86
2021/05/21 11:01:51;;;;;;;;;;;;;;;15.01;74.19;99224.04;1729142;82;20214;-84
2021/05/21 11:04:21;;;;;;;;;;;;;;;15.03;72.04;99219.59;1716595;83;20172;-86
2021/05/21 11:06:53;;;;;;;;;;;;;;;15.16;72.51;99224.72;1731765;82;20189;-87
2021/05/21 11:09:22;;;;;;;;;;;;;;;15.37;72.81;99229.50;1736407;82;20216;-85
2021/05/21 11:11:55;;;;;;;;;;;;;;;15.63;73.40;99223.13;1737958;82;20224;-86
2021/05/21 11:14:30;;;;;;;;;;;;;;;15.87;75.04;99225.15;1730537;79;20182;-86
2021/05/21 11:17:09;;;;;;;;;;;;;;;15.99;72.60;99234.23;1774552;81;20140;-86
2021/05/21 11:19:36;;;;;;;;;;;;;;;16.05;72.76;99234.42;1803272;78;20167;-86
2021/05/21 11:22:09;;;;;;;;;;;;;;;16.06;73.31;99227.80;1804751;79;20190;-83
2021/05/21 11:24:41;;;;;;;;;;;;;;;16.09;72.85;99234.23;1758411;80;20189;-82
2021/05/21 11:27:11;;;;;;;;;;;;;;;16.12;73.45;99221.91;1764727;80;20179;-83
2021/05/21 11:29:44;;;;;;;;;;;;;;;16.06;74.49;99219.09;1759694;81;20250;-85
2021/05/21 11:32:11;;;;;;;;;;;;;;;16.04;72.50;99232.73;1791954;80;20183;-83
2021/05/21 11:34:38;;;;;;;;;;;;;;;15.90;70.15;99232.05;1755324;81;20174;-84
2021/05/21 11:37:06;;;;;;;;;;;;;;;15.85;71.32;99235.32;1766659;81;20156;-84
2021/05/21 11:39:34;;;;;;;;;;;;;;;15.84;70.09;99229.23;1763351;80;20239;-82
2021/05/21 11:42:06;;;;;;;;;;;;;;;15.90;71.28;99236.83;1767111;80;20247;-84
2021/05/21 11:44:34;;;;;;;;;;;;;;;15.95;69.60;99244.47;1767500;80;20161;-82
2021/05/21 11:47:07;;;;;;;;;;;;;;;15.83;67.56;99241.09;1763877;80;20165;-82
2021/05/21 11:49:34;;;;;;;;;;;;;;;15.88;67.31;99233.42;1756050;81;20175;-82
2021/05/21 11:52:05;;;;;;;;;;;;;;;15.82;69.17;99232.85;1765788;80;20195;-86
2021/05/21 11:54:31;;;;;;;;;;;;;;;15.75;68.43;99230.94;1765480;80;20204;-85
2021/05/21 11:56:59;;;;;;;;;;;;;;;15.49;67.88;99234.67;1774643;81;20164;-85
2021/05/21 11:59:27;;;;;;;;;;;;;;;15.44;68.79;99244.52;1774359;80;20165;-87
2021/05/21 12:01:55;;;;;;;;;;;;;;;15.30;68.93;99245.09;1766563;80;20171;-85
2021/05/21 12:04:24;;;;;;;;;;;;;;;15.28;71.13;99234.67;1768921;80;20214;-84
2021/05/21 12:06:52;;;;;;;;;;;;;;;15.42;72.60;99222.73;1770743;80;20128;-84
2021/05/21 12:09:20;;;;;;;;;;;;;;;15.62;72.58;99199.63;1762907;81;20177;-84
2021/05/21 12:11:49;;;;;;;;;;;;;;;15.84;72.42;99199.55;1770511;80;20182;-84
2021/05/21 12:14:18;;;;;;;;;;;;;;;15.87;69.72;99204.64;1768602;80;20225;-84
2021/05/21 12:16:45;;;;;;;;;;;;;;;15.99;70.92;99217.66;1735436;81;20150;-84
2021/05/21 12:19:12;;;;;;;;;;;;;;;16.11;68.70;99218.41;1767146;80;20132;-84
2021/05/21 12:21:47;;;;;;;;;;;;;;;16.07;70.31;99216.37;1759473;80;20198;-87
2021/05/21 12:24:16;;;;;;;;;;;;;;;16.25;69.53;99218.64;1755674;80;20161;-86
2021/05/21 12:26:44;;;;;;;;;;;;;;;16.58;68.78;99205.31;1771238;81;20136;-85
2021/05/21 12:29:12;;;;;;;;;;;;;;;16.90;68.15;99209.86;1775617;81;20218;-87
2021/05/21 12:31:41;;;;;;;;;;;;;;;17.15;67.72;99206.48;1767643;81;20141;-85
2021/05/21 12:34:08;;;;;;;;;;;;;;;17.34;67.45;99213.82;1762807;80;20203;-85
2021/05/21 12:36:34;;;;;;;;;;;;;;;17.43;64.77;99209.89;1768177;81;20177;-86
2021/05/21 12:39:04;;;;;;;;;;;;;;;17.48;61.08;99219.22;1778121;80;20169;-85
2021/05/21 12:41:36;;;;;;;;;;;;;;;17.56;62.87;99212.72;1761521;80;20222;-86
2021/05/21 12:44:16;;;;;;;;;;;;;;;17.40;63.43;99210.88;1727101;81;20572;-85
2021/05/21 12:46:48;;;;;;;;;;;;;;;17.10;64.55;99211.97;1740289;82;20564;-86
2021/05/21 12:49:18;;;;;;;;;;;;;;;16.69;64.09;99225.31;1745853;81;20241;-86
2021/05/21 12:51:52;;;;;;;;;;;;;;;16.36;65.45;99222.54;1748953;82;20177;-85
2021/05/21 12:54:22;;;;;;;;;;;;;;;16.05;68.16;99227.88;1737431;81;20203;-84
2021/05/21 12:56:57;;;;;;;;;;;;;;;16.02;67.61;99221.47;1730589;81;20201;-83
2021/05/21 12:59:32;;;;;;;;;;;;;;;15.84;69.44;99209.58;1732910;81;20558;-84
2021/05/21 13:01:58;;;;;;;;;;;;;;;15.76;71.24;99195.13;1733268;82;20232;-84
2021/05/21 13:04:24;;;;;;;;;;;;;;;15.77;70.52;99191.09;1747940;81;20185;-84
2021/05/21 13:06:56;;;;;;;;;;;;;;;15.81;74.26;99185.27;1744746;82;20198;-83
2021/05/21 13:09:23;;;;;;;;;;;;;;;16.07;74.00;99175.73;1732414;82;20202;-83
2021/05/21 13:12:03;;;;;;;;;;;;;;;16.42;75.30;99171.08;1745891;82;20990;-84
2021/05/21 13:14:32;;;;;;;;;;;;;;;16.66;74.56;99155.92;1728445;83;20219;-85
2021/05/21 13:17:07;;;;;;;;;;;;;;;17.08;73.52;99153.41;1736531;83;20202;-83
2021/05/21 13:19:37;;;;;;;;;;;;;;;17.43;71.90;99146.82;1735129;83;20201;-85
2021/05/21 13:22:15;;;;;;;;;;;;;;;17.60;70.92;99145.91;1752890;81;20213;-85
2021/05/21 13:24:44;;;;;;;;;;;;;;;17.75;70.36;99145.10;1722371;81;20269;-86
2021/05/21 13:27:11;;;;;;;;;;;;;;;17.90;69.07;99152.64;1733073;83;20120;-86
2021/05/21 13:29:37;;;;;;;;;;;;;;;17.98;68.43;99152.23;1730170;82;20194;-85
2021/05/21 13:32:04;;;;;;;;;;;;;;;18.05;66.58;99149.19;1738390;82;20143;-86
2021/05/21 13:34:30;;;;;;;;;;;;;;;18.11;65.43;99144.06;1742642;81;20189;-83
2021/05/21 13:36:56;;;;;;;;;;;;;;;18.15;63.65;99152.64;1731822;82;20269;-85
2021/05/21 13:39:23;;;;;;;;;;;;;;;18.11;63.99;99157.69;1724816;81;20975;-84
2021/05/21 13:41:49;;;;;;;;;;;;;;;18.06;63.76;99162.73;1738433;81;20150;-86
2021/05/21 13:44:15;;;;;;;;;;;;;;;17.96;61.96;99161.52;1755740;81;20206;-86
2021/05/21 13:46:41;;;;;;;;;;;;;;;17.89;63.73;99162.33;1760972;80;20181;-86
2021/05/21 13:49:07;;;;;;;;;;;;;;;17.87;63.19;99162.03;1770832;81;20177;-86
2021/05/21 13:51:34;;;;;;;;;;;;;;;17.85;64.16;99163.42;1770576;81;20188;-85
2021/05/21 13:54:00;;;;;;;;;;;;;;;17.86;64.00;99159.01;1763443;81;20191;-86
2021/05/21 13:56:26;;;;;;;;;;;;;;;18.19;64.42;99155.48;1763660;81;20227;-86
2021/05/21 13:58:52;;;;;;;;;;;;;;;18.92;61.51;99154.87;1744472;81;20179;-86
2021/05/21 14:01:18;;;;;;;;;;;;;;;19.56;64.93;99139.65;1771162;81;20192;-86
2021/05/21 14:03:44;;;;;;;;;;;;;;;19.96;60.96;99147.75;1776950;80;20201;-86
2021/05/21 14:06:11;;;;;;;;;;;;;;;19.97;56.53;99148.11;1776309;80;20164;-86
2021/05/21 14:08:37;;;;;;;;;;;;;;;20.02;58.45;99141.60;1744616;79;20615;-89
2021/05/21 14:11:06;;;;;;;;;;;;;;;20.29;56.57;99136.81;1756482;78;20255;-87
2021/05/21 14:13:34;;;;;;;;;;;;;;;20.70;54.97;99136.42;1756323;80;20169;-87
2021/05/21 14:16:15;;;;;;;;;;;;;;;21.01;50.41;99135.23;1728413;81;20130;-89
2021/05/21 14:31:30;;;;;;;;;;;;;;;26.12;37.77;99115.39;1767564;78;20165;-93
2021/05/21 14:37:21;;;;;;;;;;;;;;;;;;;;;
2021/05/21 14:40:28;;;;;;;;;;;;;;;28.00;33.83;99105.52;1695743;83;20175;-92
2021/05/21 14:43:00;;;;;;;;;;;;;;;28.94;33.15;99106.41;1711393;79;20161;-88
2021/05/21 14:54:10;;;;;;;;;;;;;;;;;;;;;
2021/05/21 15:14:26;;;;;;;;;;;;;;;30.13;27.86;99094.16;1702633;80;20140;-92
2021/05/21 15:28:44;;;;;;;;;;;;;;;29.40;27.74;99098.70;1692435;82;20202;-93
2021/05/21 15:31:17;;;;;;;;;;;;;;;29.14;28.32;99095.53;1660371;83;20120;-93
2021/05/21 15:52:03;;;;;;;;;;;;;;;24.80;35.03;99103.66;1688564;79;20173;-91
2021/05/21 16:06:08;;;;;;;;;;;;;;;24.13;37.04;99115.35;1799917;77;20166;-89
2021/05/21 16:08:35;;;;;;;;;;;;;;;23.91;37.05;99099.82;1786900;79;20225;-88
2021/05/21 16:11:05;;;;;;;;;;;;;;;23.81;39.60;99106.84;1823227;79;20204;-89
2021/05/21 16:13:30;;;;;;;;;;;;;;;23.93;39.21;99107.17;1823456;78;20356;-89